createdAt,value
2022-08-18T00:00:20.371Z,75.18
2022-08-18T00:01:15.083Z,75.47
2022-08-18T00:02:35.691Z,74.79
2022-08-18T00:03:53.371Z,74.98
2022-08-18T00:04:35.537Z,74.79
2022-08-18T00:05:14.804Z,74.89
2022-08-18T00:06:14.609Z,75.27
2022-08-18T00:07:14.571Z,74.69
2022-08-18T00:08:38.486Z,74.50
2022-08-18T00:09:14.562Z,74.89
2022-08-18T00:10:18.702Z,74.50
2022-08-18T00:11:15.110Z,74.50
2022-08-18T00:12:14.558Z,74.40
2022-08-18T00:13:14.555Z,74.98
2022-08-18T00:14:35.508Z,74.79
2022-08-18T00:15:14.496Z,74.79
2022-08-18T00:16:14.475Z,74.69
2022-08-18T00:17:14.486Z,74.60
2022-08-18T00:18:14.447Z,74.50
2022-08-18T00:19:14.432Z,74.79
2022-08-18T00:20:35.430Z,74.69
2022-08-18T00:21:14.408Z,74.79
2022-08-18T00:22:14.926Z,74.69
2022-08-18T00:23:14.374Z,74.60
2022-08-18T00:24:14.372Z,74.89
2022-08-18T00:25:14.341Z,74.69
2022-08-18T00:26:37.096Z,74.60
2022-08-18T00:27:14.358Z,75.18
2022-08-18T00:28:14.357Z,75.18
2022-08-18T00:29:14.304Z,75.18
2022-08-18T00:30:14.301Z,74.89
2022-08-18T00:31:14.273Z,75.47
2022-08-18T00:32:35.281Z,75.27
2022-08-18T00:33:14.292Z,75.24
2022-08-18T00:34:14.240Z,75.18
2022-08-18T00:35:14.273Z,75.27
2022-08-18T00:36:14.210Z,75.37
2022-08-18T00:37:14.206Z,75.18
2022-08-18T00:38:36.139Z,75.37
2022-08-18T00:39:14.171Z,75.18
2022-08-18T00:40:14.246Z,75.18
2022-08-18T00:41:14.160Z,75.34
2022-08-18T00:42:14.149Z,75.18
2022-08-18T00:43:14.153Z,74.98
2022-08-18T00:44:35.155Z,74.89
2022-08-18T00:45:14.106Z,74.98
2022-08-18T00:46:14.105Z,75.08
2022-08-18T00:47:14.096Z,74.98
2022-08-18T00:48:14.604Z,75.08
2022-08-18T00:49:14.085Z,75.27
2022-08-18T00:50:35.071Z,75.18
2022-08-18T00:51:14.054Z,75.08
2022-08-18T00:52:14.006Z,75.18
2022-08-18T00:53:16.630Z,75.04
2022-08-18T00:54:14.006Z,74.50
2022-08-18T00:55:13.969Z,74.98
2022-08-18T00:56:34.964Z,75.37
2022-08-18T00:57:13.943Z,74.79
2022-08-18T00:58:13.940Z,74.37
2022-08-18T00:59:13.942Z,74.98
2022-08-18T01:00:13.903Z,74.95
2022-08-18T01:01:14.020Z,74.50
2022-08-18T01:02:34.897Z,75.08
2022-08-18T01:03:13.883Z,74.69
2022-08-18T01:04:13.888Z,74.79
2022-08-18T01:05:13.873Z,74.69
2022-08-18T01:06:13.851Z,74.40
2022-08-18T01:07:13.819Z,74.37
2022-08-18T01:08:34.811Z,74.69
2022-08-18T01:09:13.831Z,74.40
2022-08-18T01:10:13.811Z,74.79
2022-08-18T01:11:13.768Z,74.60
2022-08-18T01:12:44.877Z,74.69
2022-08-18T01:13:13.759Z,74.60
2022-08-18T01:14:34.735Z,74.60
2022-08-18T01:15:27.474Z,74.79
2022-08-18T01:16:13.760Z,74.50
2022-08-18T01:17:13.725Z,74.50
2022-08-18T01:18:13.714Z,74.98
2022-08-18T01:19:13.675Z,74.40
2022-08-18T01:20:34.687Z,75.18
2022-08-18T01:21:13.652Z,74.89
2022-08-18T01:22:13.644Z,74.79
2022-08-18T01:23:13.666Z,74.79
2022-08-18T01:24:16.405Z,74.60
2022-08-18T01:25:14.141Z,74.79
2022-08-18T01:26:34.605Z,74.79
2022-08-18T01:27:13.574Z,74.69
2022-08-18T01:28:13.595Z,74.69
2022-08-18T01:29:18.992Z,74.69
2022-08-18T01:30:13.549Z,74.79
2022-08-18T01:31:13.560Z,75.37
2022-08-18T01:32:34.556Z,74.50
2022-08-18T01:33:13.554Z,74.69
2022-08-18T01:34:13.492Z,75.21
2022-08-18T01:35:13.487Z,74.69
2022-08-18T01:36:13.471Z,74.79
2022-08-18T01:37:13.453Z,74.79
2022-08-18T01:38:34.445Z,74.79
2022-08-18T01:39:13.443Z,74.69
2022-08-18T01:41:25.076Z,74.50
2022-08-18T01:41:26.734Z,74.79
2022-08-18T01:42:13.534Z,74.69
2022-08-18T01:43:13.372Z,74.89
2022-08-18T01:44:34.371Z,74.79
2022-08-18T01:45:13.352Z,74.69
2022-08-18T01:46:14.157Z,74.89
2022-08-18T01:47:13.341Z,74.30
2022-08-18T01:48:13.309Z,74.98
2022-08-18T01:49:13.332Z,74.89
2022-08-18T01:50:34.358Z,74.69
2022-08-18T01:51:13.282Z,74.79
2022-08-18T01:52:13.274Z,74.89
2022-08-18T01:53:13.279Z,74.11
2022-08-18T01:54:13.281Z,74.98
2022-08-18T01:55:14.823Z,74.98
2022-08-18T01:56:34.252Z,74.60
2022-08-18T01:57:13.212Z,74.69
2022-08-18T01:58:13.214Z,74.89
2022-08-18T01:59:13.181Z,74.79
2022-08-18T02:00:13.183Z,74.69
2022-08-18T02:01:13.232Z,74.69
2022-08-18T02:02:34.162Z,74.79
2022-08-18T02:03:13.142Z,74.69
2022-08-18T02:04:33.903Z,74.66
2022-08-18T02:05:13.106Z,74.17
2022-08-18T02:06:13.872Z,74.89
2022-08-18T02:07:13.083Z,74.76
2022-08-18T02:08:34.089Z,74.69
2022-08-18T02:09:13.038Z,74.69
2022-08-18T02:10:13.240Z,74.69
2022-08-18T02:11:13.050Z,74.79
2022-08-18T02:12:13.012Z,74.79
2022-08-18T02:13:13.683Z,74.79
2022-08-18T02:14:34.008Z,74.17
2022-08-18T02:15:13.017Z,75.08
2022-08-18T02:16:12.970Z,74.98
2022-08-18T02:17:12.950Z,74.79
2022-08-18T02:18:13.064Z,74.79
2022-08-18T02:19:12.949Z,74.89
2022-08-18T02:20:33.940Z,74.79
2022-08-18T02:21:12.928Z,74.69
2022-08-18T02:22:12.877Z,74.76
2022-08-18T02:23:12.886Z,74.66
2022-08-18T02:24:12.894Z,74.76
2022-08-18T02:25:12.851Z,74.56
2022-08-18T02:26:33.845Z,74.85
2022-08-18T02:27:12.813Z,74.66
2022-08-18T02:28:12.820Z,74.85
2022-08-18T02:29:12.829Z,74.46
2022-08-18T02:30:12.812Z,74.66
2022-08-18T02:31:12.780Z,74.60
2022-08-18T02:32:33.835Z,74.85
2022-08-18T02:33:12.764Z,74.46
2022-08-18T02:34:12.773Z,74.66
2022-08-18T02:35:12.740Z,74.95
2022-08-18T02:36:12.712Z,74.95
2022-08-18T02:37:15.429Z,74.56
2022-08-18T02:38:33.720Z,74.66
2022-08-18T02:39:12.690Z,74.56
2022-08-18T02:40:14.845Z,74.66
2022-08-18T02:41:12.649Z,74.37
2022-08-18T02:42:12.694Z,75.04
2022-08-18T02:43:12.648Z,75.14
2022-08-18T02:44:33.662Z,75.14
2022-08-18T02:45:12.628Z,75.04
2022-08-18T02:46:12.635Z,75.04
2022-08-18T02:47:12.592Z,74.95
2022-08-18T02:48:12.594Z,75.24
2022-08-18T02:49:12.566Z,75.34
2022-08-18T02:50:33.567Z,75.34
2022-08-18T02:51:12.582Z,75.34
2022-08-18T02:52:12.516Z,75.14
2022-08-18T02:53:12.541Z,75.24
2022-08-18T02:54:12.500Z,75.24
2022-08-18T02:55:13.198Z,75.34
2022-08-18T02:56:41.802Z,75.04
2022-08-18T02:57:12.454Z,75.24
2022-08-18T02:58:12.468Z,75.14
2022-08-18T02:59:12.505Z,75.43
2022-08-18T03:00:12.598Z,75.24
2022-08-18T03:01:12.466Z,74.98
2022-08-18T03:02:33.411Z,75.27
2022-08-18T03:03:12.398Z,74.98
2022-08-18T03:04:12.471Z,75.08
2022-08-18T03:05:14.627Z,75.04
2022-08-18T03:06:12.381Z,74.98
2022-08-18T03:07:12.351Z,75.08
2022-08-18T03:08:33.351Z,74.98
2022-08-18T03:09:12.355Z,74.79
2022-08-18T03:10:33.166Z,74.40
2022-08-18T03:11:12.302Z,75.18
2022-08-18T03:12:12.372Z,74.50
2022-08-18T03:13:12.259Z,74.60
2022-08-18T03:14:33.299Z,74.50
2022-08-18T03:15:12.282Z,74.69
2022-08-18T03:16:12.222Z,74.50
2022-08-18T03:17:12.348Z,74.79
2022-08-18T03:18:12.240Z,74.89
2022-08-18T03:19:12.192Z,74.89
2022-08-18T03:20:33.226Z,74.89
2022-08-18T03:21:12.157Z,74.83
2022-08-18T03:22:27.344Z,74.60
2022-08-18T03:23:12.188Z,74.60
2022-08-18T03:24:12.125Z,74.89
2022-08-18T03:25:12.111Z,74.79
2022-08-18T03:26:33.158Z,74.79
2022-08-18T03:27:12.101Z,74.40
2022-08-18T03:28:12.088Z,74.69
2022-08-18T03:29:12.071Z,74.89
2022-08-18T03:30:12.109Z,74.69
2022-08-18T03:31:12.065Z,74.93
2022-08-18T03:32:33.709Z,74.89
2022-08-18T03:33:12.048Z,74.73
2022-08-18T03:34:12.700Z,74.69
2022-08-18T03:35:12.036Z,74.44
2022-08-18T03:36:12.025Z,74.98
2022-08-18T03:37:11.964Z,74.89
2022-08-18T03:38:33.726Z,74.69
2022-08-18T03:39:11.973Z,74.93
2022-08-18T03:40:12.015Z,74.79
2022-08-18T03:41:11.987Z,74.89
2022-08-18T03:42:12.589Z,74.79
2022-08-18T03:43:33.414Z,74.89
2022-08-18T03:44:32.910Z,74.89
2022-08-18T03:45:13.096Z,74.79
2022-08-18T03:46:11.979Z,74.89
2022-08-18T03:47:11.940Z,74.79
2022-08-18T03:48:11.945Z,74.69
2022-08-18T03:49:11.878Z,74.89
2022-08-18T03:50:32.855Z,74.69
2022-08-18T03:51:11.807Z,74.69
2022-08-18T03:52:11.827Z,75.18
2022-08-18T03:53:11.773Z,74.60
2022-08-18T03:54:12.596Z,74.79
2022-08-18T03:55:11.751Z,74.79
2022-08-18T03:56:32.782Z,74.89
2022-08-18T03:57:11.714Z,74.73
2022-08-18T03:58:11.696Z,74.79
2022-08-18T03:59:11.704Z,74.98
2022-08-18T04:00:11.702Z,74.83
2022-08-18T04:01:11.750Z,75.12
2022-08-18T04:02:32.709Z,75.02
2022-08-18T04:03:11.656Z,74.63
2022-08-18T04:04:12.318Z,74.73
2022-08-18T04:05:11.632Z,74.93
2022-08-18T04:06:12.706Z,75.12
2022-08-18T04:07:11.616Z,74.93
2022-08-18T04:08:32.630Z,74.93
2022-08-18T04:09:11.571Z,74.89
2022-08-18T04:10:14.065Z,74.98
2022-08-18T04:11:11.582Z,74.93
2022-08-18T04:12:11.595Z,74.93
2022-08-18T04:13:12.190Z,74.83
2022-08-18T04:14:32.526Z,74.69
2022-08-18T04:15:11.507Z,74.50
2022-08-18T04:16:11.521Z,75.37
2022-08-18T04:17:11.519Z,74.79
2022-08-18T04:18:11.745Z,74.79
2022-08-18T04:19:11.475Z,74.50
2022-08-18T04:20:32.440Z,74.69
2022-08-18T04:21:11.476Z,74.69
2022-08-18T04:22:11.450Z,74.60
2022-08-18T04:23:11.436Z,74.69
2022-08-18T04:24:11.421Z,75.27
2022-08-18T04:25:11.371Z,74.89
2022-08-18T04:26:32.376Z,74.98
2022-08-18T04:27:11.362Z,75.18
2022-08-18T04:28:11.379Z,74.79
2022-08-18T04:29:11.314Z,75.27
2022-08-18T04:30:11.307Z,75.08
2022-08-18T04:31:11.318Z,75.27
2022-08-18T04:32:32.305Z,75.18
2022-08-18T04:33:11.315Z,75.08
2022-08-18T04:34:11.288Z,74.89
2022-08-18T04:35:14.069Z,75.08
2022-08-18T04:36:11.240Z,74.98
2022-08-18T04:37:11.252Z,74.98
2022-08-18T04:38:32.248Z,75.08
2022-08-18T04:39:11.267Z,75.08
2022-08-18T04:40:11.328Z,74.98
2022-08-18T04:41:11.179Z,75.08
2022-08-18T04:42:11.180Z,74.89
2022-08-18T04:43:11.175Z,74.98
2022-08-18T04:44:32.194Z,74.98
2022-08-18T04:45:11.124Z,74.79
2022-08-18T04:46:11.154Z,74.89
2022-08-18T04:47:11.129Z,74.89
2022-08-18T04:48:11.123Z,75.31
2022-08-18T04:49:11.165Z,75.37
2022-08-18T04:50:32.175Z,75.18
2022-08-18T04:51:11.054Z,75.51
2022-08-18T04:52:38.972Z,75.27
2022-08-18T04:53:11.045Z,75.51
2022-08-18T04:54:11.035Z,75.18
2022-08-18T04:55:11.105Z,75.47
2022-08-18T04:56:32.047Z,74.89
2022-08-18T04:57:11.071Z,75.02
2022-08-18T04:58:10.982Z,75.18
2022-08-18T04:59:10.971Z,75.41
2022-08-18T05:00:11.004Z,75.31
2022-08-18T05:01:11.007Z,75.12
2022-08-18T05:02:31.919Z,75.31
2022-08-18T05:03:10.917Z,75.31
2022-08-18T05:04:10.920Z,75.41
2022-08-18T05:05:10.910Z,75.41
2022-08-18T05:06:10.914Z,75.31
2022-08-18T05:07:10.904Z,75.21
2022-08-18T05:08:31.842Z,75.21
2022-08-18T05:09:10.850Z,75.41
2022-08-18T05:10:10.912Z,75.31
2022-08-18T05:11:10.836Z,74.93
2022-08-18T05:12:10.867Z,75.21
2022-08-18T05:13:10.784Z,75.51
2022-08-18T05:14:32.770Z,75.51
2022-08-18T05:15:10.796Z,75.41
2022-08-18T05:16:14.818Z,75.21
2022-08-18T05:17:10.763Z,74.93
2022-08-18T05:18:10.726Z,74.93
2022-08-18T05:19:10.725Z,75.12
2022-08-18T05:20:31.725Z,75.12
2022-08-18T05:21:10.699Z,74.93
2022-08-18T05:22:10.715Z,75.02
2022-08-18T05:23:10.660Z,75.02
2022-08-18T05:24:11.283Z,74.93
2022-08-18T05:25:10.663Z,74.93
2022-08-18T05:26:31.654Z,75.02
2022-08-18T05:27:10.633Z,75.35
2022-08-18T05:28:10.596Z,75.25
2022-08-18T05:29:18.409Z,75.54
2022-08-18T05:30:10.592Z,75.25
2022-08-18T05:31:13.639Z,75.45
2022-08-18T05:32:47.187Z,75.05
2022-08-18T05:33:10.612Z,74.87
2022-08-18T05:34:10.531Z,75.25
2022-08-18T05:35:10.541Z,75.15
2022-08-18T05:36:10.545Z,75.15
2022-08-18T05:37:10.526Z,75.15
2022-08-18T05:38:31.613Z,75.00
2022-08-18T05:39:10.467Z,74.96
2022-08-18T05:40:11.658Z,74.96
2022-08-18T05:41:14.058Z,75.20
2022-08-18T05:42:10.536Z,75.39
2022-08-18T05:43:10.440Z,75.20
2022-08-18T05:44:31.513Z,74.51
2022-08-18T05:45:10.437Z,74.90
2022-08-18T05:46:10.387Z,74.80
2022-08-18T05:47:10.393Z,74.61
2022-08-18T05:48:10.373Z,74.71
2022-08-18T05:49:10.389Z,75.10
2022-08-18T05:50:31.401Z,74.80
2022-08-18T05:51:10.321Z,74.80
2022-08-18T05:52:11.351Z,74.90
2022-08-18T05:53:13.238Z,74.90
2022-08-18T05:54:10.338Z,74.80
2022-08-18T05:55:10.367Z,74.80
2022-08-18T05:56:31.346Z,74.61
2022-08-18T05:57:10.265Z,75.00
2022-08-18T05:58:10.322Z,75.13
2022-08-18T05:59:10.274Z,75.10
2022-08-18T06:00:10.238Z,74.64
2022-08-18T06:01:10.241Z,75.04
2022-08-18T06:02:31.289Z,74.93
2022-08-18T06:03:10.262Z,75.04
2022-08-18T06:04:10.206Z,74.84
2022-08-18T06:05:10.212Z,75.04
2022-08-18T06:06:11.178Z,74.93
2022-08-18T06:07:10.139Z,74.93
2022-08-18T06:08:31.242Z,74.93
2022-08-18T06:09:10.153Z,75.04
2022-08-18T06:10:10.119Z,75.04
2022-08-18T06:11:17.313Z,74.29
2022-08-18T06:12:10.080Z,75.17
2022-08-18T06:13:10.080Z,75.13
2022-08-18T06:14:31.062Z,74.74
2022-08-18T06:15:10.066Z,74.87
2022-08-18T06:16:10.075Z,75.07
2022-08-18T06:17:10.052Z,74.87
2022-08-18T06:18:10.010Z,74.97
2022-08-18T06:19:10.003Z,74.77
2022-08-18T06:20:31.023Z,74.87
2022-08-18T06:21:10.006Z,74.68
2022-08-18T06:22:09.978Z,74.58
2022-08-18T06:23:09.989Z,74.48
2022-08-18T06:24:09.946Z,74.68
2022-08-18T06:25:09.937Z,74.58
2022-08-18T06:26:31.820Z,74.58
2022-08-18T06:27:09.921Z,74.77
2022-08-18T06:28:09.952Z,74.81
2022-08-18T06:29:09.963Z,74.91
2022-08-18T06:30:09.906Z,74.62
2022-08-18T06:31:10.850Z,74.62
2022-08-18T06:32:30.874Z,74.62
2022-08-18T06:33:09.883Z,74.71
2022-08-18T06:34:09.878Z,74.71
2022-08-18T06:35:09.899Z,74.71
2022-08-18T06:36:09.811Z,74.22
2022-08-18T06:37:09.819Z,74.55
2022-08-18T06:38:30.819Z,74.46
2022-08-18T06:39:09.819Z,74.36
2022-08-18T06:40:09.854Z,74.16
2022-08-18T06:41:09.797Z,74.46
2022-08-18T06:42:09.758Z,74.30
2022-08-18T06:43:09.772Z,74.79
2022-08-18T06:44:30.774Z,74.01
2022-08-18T06:45:09.769Z,74.01
2022-08-18T06:46:09.709Z,73.94
2022-08-18T06:47:09.787Z,74.04
2022-08-18T06:48:12.668Z,73.36
2022-08-18T06:49:09.699Z,72.96
2022-08-18T06:50:30.694Z,73.00
2022-08-18T06:51:09.669Z,73.19
2022-08-18T06:52:09.688Z,73.19
2022-08-18T06:53:27.501Z,73.10
2022-08-18T06:54:09.630Z,73.49
2022-08-18T06:55:09.651Z,73.00
2022-08-18T06:56:30.690Z,72.90
2022-08-18T06:57:09.607Z,73.19
2022-08-18T06:58:09.581Z,72.61
2022-08-18T06:59:09.615Z,72.71
2022-08-18T07:00:09.569Z,72.80
2022-08-18T07:01:09.613Z,72.31
2022-08-18T07:02:30.581Z,72.41
2022-08-18T07:03:09.573Z,72.61
2022-08-18T07:04:09.583Z,72.45
2022-08-18T07:05:09.554Z,72.16
2022-08-18T07:06:10.369Z,72.45
2022-08-18T07:07:09.530Z,72.35
2022-08-18T07:08:30.514Z,72.45
2022-08-18T07:09:09.483Z,72.45
2022-08-18T07:10:09.491Z,72.05
2022-08-18T07:11:09.443Z,71.86
2022-08-18T07:12:09.443Z,71.50
2022-08-18T07:13:09.450Z,71.27
2022-08-18T07:14:30.449Z,71.50
2022-08-18T07:15:09.445Z,71.70
2022-08-18T07:16:09.401Z,71.21
2022-08-18T07:17:10.386Z,71.41
2022-08-18T07:18:09.384Z,71.21
2022-08-18T07:19:09.450Z,71.21
2022-08-18T07:20:30.386Z,71.44
2022-08-18T07:21:09.359Z,71.44
2022-08-18T07:22:09.374Z,71.34
2022-08-18T07:23:09.373Z,71.14
2022-08-18T07:24:24.377Z,71.14
2022-08-18T07:25:09.340Z,70.85
2022-08-18T07:26:30.322Z,71.04
2022-08-18T07:27:09.338Z,70.85
2022-08-18T07:28:09.337Z,70.65
2022-08-18T07:29:09.264Z,70.26
2022-08-18T07:30:09.270Z,70.56
2022-08-18T07:31:16.847Z,70.16
2022-08-18T07:32:30.865Z,70.20
2022-08-18T07:33:09.236Z,70.26
2022-08-18T07:34:09.244Z,70.49
2022-08-18T07:35:09.249Z,70.59
2022-08-18T07:36:09.206Z,70.49
2022-08-18T07:37:09.226Z,70.68
2022-08-18T07:38:44.638Z,70.00
2022-08-18T07:39:09.212Z,69.81
2022-08-18T07:40:09.243Z,70.00
2022-08-18T07:41:09.228Z,70.00
2022-08-18T07:42:09.147Z,70.10
2022-08-18T07:43:09.166Z,70.20
2022-08-18T07:44:30.142Z,70.23
2022-08-18T07:45:09.147Z,70.23
2022-08-18T07:46:09.165Z,70.23
2022-08-18T07:47:09.212Z,69.84
2022-08-18T07:48:27.469Z,69.74
2022-08-18T07:49:09.195Z,69.45
2022-08-18T07:50:57.426Z,69.78
2022-08-18T07:51:09.199Z,69.97
2022-08-18T07:52:35.831Z,69.78
2022-08-18T07:53:09.065Z,69.57
2022-08-18T07:54:20.082Z,69.78
2022-08-18T07:55:09.950Z,69.78
2022-08-18T07:56:30.038Z,69.28
2022-08-18T07:57:09.082Z,69.48
2022-08-18T07:58:09.042Z,69.48
2022-08-18T07:59:09.877Z,69.38
2022-08-18T08:00:11.228Z,69.48
2022-08-18T08:01:08.985Z,69.28
2022-08-18T08:02:30.020Z,68.99
2022-08-18T08:03:09.880Z,69.09
2022-08-18T08:04:08.974Z,68.82
2022-08-18T08:05:08.951Z,68.79
2022-08-18T08:06:08.958Z,68.63
2022-08-18T08:07:25.554Z,68.92
2022-08-18T08:08:29.957Z,68.82
2022-08-18T08:09:08.916Z,68.73
2022-08-18T08:10:08.933Z,67.97
2022-08-18T08:11:08.921Z,67.77
2022-08-18T08:12:08.887Z,67.68
2022-08-18T08:13:09.955Z,67.48
2022-08-18T08:14:29.902Z,67.48
2022-08-18T08:15:08.858Z,67.58
2022-08-18T08:16:09.375Z,67.58
2022-08-18T08:17:08.862Z,67.81
2022-08-18T08:18:08.838Z,67.71
2022-08-18T08:19:12.566Z,67.32
2022-08-18T08:20:32.968Z,67.12
2022-08-18T08:21:08.797Z,66.93
2022-08-18T08:22:08.809Z,67.44
2022-08-18T08:23:08.814Z,66.96
2022-08-18T08:24:08.806Z,66.36
2022-08-18T08:25:22.732Z,66.07
2022-08-18T08:26:29.776Z,66.07
2022-08-18T08:27:08.788Z,66.07
2022-08-18T08:28:08.740Z,65.97
2022-08-18T08:29:08.750Z,65.38
2022-08-18T08:30:08.758Z,65.41
2022-08-18T08:31:33.158Z,65.11
2022-08-18T08:32:29.711Z,65.41
2022-08-18T08:33:08.721Z,65.58
2022-08-18T08:34:08.775Z,65.51
2022-08-18T08:35:12.724Z,65.11
2022-08-18T08:36:08.780Z,65.22
2022-08-18T08:37:08.702Z,64.72
2022-08-18T08:38:42.453Z,64.62
2022-08-18T08:39:08.664Z,64.82
2022-08-18T08:40:08.724Z,64.53
2022-08-18T08:41:08.637Z,64.03
2022-08-18T08:42:29.687Z,64.32
2022-08-18T08:43:08.640Z,64.13
2022-08-18T08:44:30.402Z,64.13
2022-08-18T08:45:08.645Z,64.62
2022-08-18T08:46:08.641Z,64.72
2022-08-18T08:47:08.612Z,64.53
2022-08-18T08:48:09.720Z,64.62
2022-08-18T08:49:08.582Z,64.53
2022-08-18T08:50:29.586Z,64.53
2022-08-18T08:51:08.586Z,64.72
2022-08-18T08:52:08.587Z,64.85
2022-08-18T08:53:08.616Z,64.62
2022-08-18T08:54:08.557Z,64.56
2022-08-18T08:55:08.550Z,64.65
2022-08-18T08:56:29.525Z,64.65
2022-08-18T08:57:09.859Z,64.46
2022-08-18T08:58:08.520Z,64.06
2022-08-18T08:59:10.290Z,64.09
2022-08-18T09:00:08.541Z,64.19
2022-08-18T09:01:08.500Z,64.39
2022-08-18T09:02:47.249Z,64.00
2022-08-18T09:03:08.494Z,63.60
2022-08-18T09:04:09.398Z,63.70
2022-08-18T09:05:09.858Z,63.90
2022-08-18T09:06:08.537Z,63.80
2022-08-18T09:07:08.503Z,63.40
2022-08-18T09:08:29.440Z,63.04
2022-08-18T09:09:08.449Z,63.40
2022-08-18T09:10:08.403Z,63.40
2022-08-18T09:11:08.928Z,63.01
2022-08-18T09:12:08.421Z,63.34
2022-08-18T09:13:08.421Z,62.65
2022-08-18T09:14:29.401Z,62.74
2022-08-18T09:15:08.391Z,62.05
2022-08-18T09:16:12.340Z,62.25
2022-08-18T09:17:08.362Z,61.76
2022-08-18T09:18:08.927Z,61.96
2022-08-18T09:19:08.377Z,61.85
2022-08-18T09:20:29.365Z,61.85
2022-08-18T09:21:08.988Z,61.66
2022-08-18T09:22:08.339Z,62.15
2022-08-18T09:23:08.349Z,62.25
2022-08-18T09:24:08.303Z,62.15
2022-08-18T09:25:08.318Z,61.96
2022-08-18T09:26:29.921Z,62.18
2022-08-18T09:27:08.315Z,62.48
2022-08-18T09:28:10.846Z,62.28
2022-08-18T09:29:08.286Z,61.69
2022-08-18T09:30:08.297Z,61.62
2022-08-18T09:31:08.797Z,61.72
2022-08-18T09:32:29.330Z,60.73
2022-08-18T09:33:19.113Z,60.86
2022-08-18T09:34:10.628Z,60.86
2022-08-18T09:35:08.270Z,60.36
2022-08-18T09:36:10.101Z,59.87
2022-08-18T09:37:08.244Z,59.70
2022-08-18T09:38:29.235Z,59.90
2022-08-18T09:39:08.194Z,58.91
2022-08-18T09:40:11.314Z,58.74
2022-08-18T09:41:08.237Z,58.74
2022-08-18T09:42:08.237Z,58.74
2022-08-18T09:43:09.057Z,59.17
2022-08-18T09:44:29.174Z,58.74
2022-08-18T09:45:08.173Z,58.07
2022-08-18T09:46:08.175Z,58.37
2022-08-18T09:47:08.961Z,58.30
2022-08-18T09:48:10.065Z,58.11
2022-08-18T09:49:08.438Z,57.31
2022-08-18T09:50:29.878Z,57.74
2022-08-18T09:51:08.132Z,56.05
2022-08-18T09:52:08.142Z,56.15
2022-08-18T09:53:08.094Z,56.25
2022-08-18T09:54:08.109Z,56.25
2022-08-18T09:55:09.012Z,56.74
2022-08-18T09:56:29.963Z,56.85
2022-08-18T09:57:08.111Z,56.85
2022-08-18T09:58:08.114Z,57.14
2022-08-18T09:59:10.760Z,57.44
2022-08-18T10:00:08.183Z,57.24
2022-08-18T10:01:08.083Z,56.95
2022-08-18T10:02:29.049Z,57.34
2022-08-18T10:03:08.970Z,57.24
2022-08-18T10:04:08.043Z,57.14
2022-08-18T10:05:08.019Z,57.46
2022-08-18T10:06:12.653Z,56.68
2022-08-18T10:07:08.032Z,56.77
2022-08-18T10:08:29.835Z,57.07
2022-08-18T10:09:17.975Z,56.68
2022-08-18T10:12:08.009Z,56.38
2022-08-18T10:13:07.970Z,56.45
2022-08-18T10:14:28.973Z,56.15
2022-08-18T10:15:08.016Z,56.15
2022-08-18T10:16:10.265Z,56.05
2022-08-18T10:17:24.337Z,56.15
2022-08-18T10:18:07.972Z,56.15
2022-08-18T10:19:07.963Z,55.96
2022-08-18T10:20:28.970Z,56.35
2022-08-18T10:21:07.921Z,56.45
2022-08-18T10:22:07.933Z,56.05
2022-08-18T10:23:07.937Z,56.15
2022-08-18T10:24:34.890Z,56.15
2022-08-18T10:25:22.058Z,56.15
2022-08-18T10:26:28.900Z,56.25
2022-08-18T10:27:07.911Z,56.25
2022-08-18T10:28:07.933Z,56.74
2022-08-18T10:29:07.873Z,56.55
2022-08-18T10:30:07.890Z,56.74
2022-08-18T10:31:09.807Z,56.42
2022-08-18T10:32:28.851Z,56.42
2022-08-18T10:33:17.769Z,56.72
2022-08-18T10:34:19.654Z,56.52
2022-08-18T10:35:07.867Z,56.52
2022-08-18T10:36:07.819Z,56.42
2022-08-18T10:37:07.824Z,56.52
2022-08-18T10:38:30.964Z,56.62
2022-08-18T10:39:07.789Z,56.69
2022-08-18T10:40:07.917Z,57.39
2022-08-18T10:41:15.152Z,56.89
2022-08-18T10:42:07.815Z,56.89
2022-08-18T10:43:26.727Z,57.12
2022-08-18T10:44:29.860Z,56.99
2022-08-18T10:45:07.784Z,57.02
2022-08-18T10:47:12.150Z,56.62
2022-08-18T10:48:11.956Z,56.42
2022-08-18T10:50:28.748Z,56.65
2022-08-18T10:51:07.716Z,55.93
2022-08-18T10:52:07.733Z,56.13
2022-08-18T10:53:40.848Z,56.42
2022-08-18T10:54:07.693Z,56.42
2022-08-18T10:55:10.172Z,56.32
2022-08-18T10:56:28.710Z,56.55
2022-08-18T10:57:07.694Z,56.82
2022-08-18T10:58:07.711Z,56.95
2022-08-18T10:59:07.669Z,57.02
2022-08-18T11:00:07.677Z,57.14
2022-08-18T11:01:07.692Z,57.24
2022-08-18T11:02:28.678Z,57.44
2022-08-18T11:03:42.721Z,56.85
2022-08-18T11:04:14.113Z,56.65
2022-08-18T11:06:14.487Z,55.76
2022-08-18T11:07:08.192Z,55.16
2022-08-18T11:08:29.098Z,55.29
2022-08-18T11:09:07.592Z,55.19
2022-08-18T11:10:29.377Z,55.56
2022-08-18T11:12:07.600Z,55.49
2022-08-18T11:13:09.682Z,55.39
2022-08-18T11:14:28.598Z,55.49
2022-08-18T11:16:10.291Z,54.60
2022-08-18T11:17:07.559Z,53.60
2022-08-18T11:18:10.667Z,53.92
2022-08-18T11:19:08.559Z,53.13
2022-08-18T11:20:29.531Z,52.64
2022-08-18T11:21:12.604Z,51.94
2022-08-18T11:22:07.571Z,52.24
2022-08-18T11:23:07.539Z,51.84
2022-08-18T11:24:07.585Z,51.45
2022-08-18T11:25:07.575Z,51.15
2022-08-18T11:26:28.501Z,51.07
2022-08-18T11:27:15.654Z,50.78
2022-08-18T11:28:07.493Z,50.78
2022-08-18T11:29:07.514Z,51.07
2022-08-18T11:30:07.523Z,50.98
2022-08-18T11:31:07.491Z,50.78
2022-08-18T11:32:28.487Z,50.28
2022-08-18T11:33:07.448Z,50.48
2022-08-18T11:34:08.020Z,51.18
2022-08-18T11:35:07.541Z,50.88
2022-08-18T11:36:07.462Z,50.88
2022-08-18T11:37:09.146Z,49.88
2022-08-18T11:38:29.421Z,50.31
2022-08-18T11:39:07.429Z,50.21
2022-08-18T11:40:07.489Z,50.01
2022-08-18T11:41:10.455Z,50.01
2022-08-18T11:42:08.014Z,49.69
2022-08-18T11:43:07.401Z,50.18
2022-08-18T11:44:28.413Z,50.68
2022-08-18T11:45:07.368Z,50.58
2022-08-18T11:46:07.373Z,51.10
2022-08-18T11:47:07.384Z,50.70
2022-08-18T11:48:07.424Z,50.90
2022-08-18T11:49:07.346Z,50.90
2022-08-18T11:50:28.349Z,51.00
2022-08-18T11:51:07.353Z,50.73
2022-08-18T11:52:07.967Z,50.23
2022-08-18T11:53:07.335Z,49.74
2022-08-18T11:54:07.340Z,50.26
2022-08-18T11:56:31.439Z,49.07
2022-08-18T11:58:12.552Z,47.70
2022-08-18T11:59:07.728Z,47.10
2022-08-18T12:00:07.351Z,47.10
2022-08-18T12:01:07.289Z,45.81
2022-08-18T12:02:28.326Z,46.01
2022-08-18T12:03:07.335Z,46.50
2022-08-18T12:04:07.334Z,47.40
2022-08-18T12:05:08.676Z,47.10
2022-08-18T12:06:08.080Z,47.20
2022-08-18T12:07:07.251Z,47.60
2022-08-18T12:09:07.229Z,46.20
2022-08-18T12:10:18.261Z,45.21
2022-08-18T12:11:27.266Z,44.92
2022-08-18T12:12:07.212Z,44.71
2022-08-18T12:13:07.202Z,44.81
2022-08-18T12:14:30.179Z,44.32
2022-08-18T12:15:11.902Z,44.81
2022-08-18T12:16:07.220Z,45.01
2022-08-18T12:17:07.184Z,45.43
2022-08-18T12:18:07.242Z,45.33
2022-08-18T12:19:07.192Z,45.53
2022-08-18T12:20:28.202Z,45.53
2022-08-18T12:21:07.160Z,45.33
2022-08-18T12:23:07.168Z,45.53
2022-08-18T12:24:07.173Z,45.63
2022-08-18T12:25:12.145Z,45.61
2022-08-18T12:26:43.234Z,45.81
2022-08-18T12:27:20.752Z,46.11
2022-08-18T12:28:11.089Z,45.90
2022-08-18T12:29:08.819Z,45.90
2022-08-18T12:30:07.164Z,46.31
2022-08-18T12:31:15.169Z,46.31
2022-08-18T12:34:07.140Z,46.03
2022-08-18T12:35:09.428Z,46.53
2022-08-18T12:36:07.152Z,45.81
2022-08-18T12:37:14.266Z,45.51
2022-08-18T12:38:28.177Z,45.90
2022-08-18T12:39:08.091Z,46.13
2022-08-18T12:40:07.162Z,46.31
2022-08-18T12:41:07.099Z,46.31
2022-08-18T12:42:07.052Z,46.01
2022-08-18T12:43:07.052Z,45.81
2022-08-18T12:44:28.101Z,45.71
2022-08-18T12:45:07.069Z,45.81
2022-08-18T12:46:07.022Z,46.31
2022-08-18T12:47:07.593Z,45.81
2022-08-18T12:48:07.154Z,46.01
2022-08-18T12:49:07.038Z,45.51
2022-08-18T12:50:31.296Z,45.63
2022-08-18T12:51:07.001Z,45.51
2022-08-18T12:52:07.016Z,45.83
2022-08-18T12:53:06.982Z,45.53
2022-08-18T12:54:06.971Z,45.03
2022-08-18T12:55:07.577Z,45.14
2022-08-18T12:56:27.977Z,45.14
2022-08-18T12:57:06.992Z,45.53
2022-08-18T12:58:06.948Z,45.43
2022-08-18T12:59:07.006Z,45.51
2022-08-18T13:00:07.014Z,45.51
2022-08-18T13:01:06.972Z,45.83
2022-08-18T13:02:27.966Z,45.11
2022-08-18T13:03:06.931Z,44.71
2022-08-18T13:04:12.533Z,44.62
2022-08-18T13:05:06.908Z,44.71